Terminal Aerodrome Forecast
Issued by NWS

Home | Current Version | Previous Version | Text Only | Print | Product List | Glossary On
Versions: 1 2 3 4 5 6 7 8 9 10 11 12 13 14 15 16 17 18
000
FTUS43 KDLH 270523
TAFHYR
TAF
KHYR 270523Z 2706/2806 VRB03KT P6SM SKC
      TEMPO 2709/2711 4SM BR SCT002
     FM271500 16008KT P6SM SKC
     FM272000 16008G17KT P6SM FEW060
     FM280200 15004KT P6SM SCT040=

USA.gov is the U.S. government's official web portal to all federal, state and local government web resources and services.